createdAt,value
2022-12-01T00:00:26.128Z,91.34
2022-12-01T00:05:29.537Z,91.22
2022-12-01T00:10:34.559Z,91.60
2022-12-01T00:15:39.500Z,91.60
2022-12-01T00:20:42.903Z,91.80
2022-12-01T00:25:46.304Z,92.36
2022-12-01T00:30:51.231Z,92.39
2022-12-01T00:36:00.191Z,92.28
2022-12-01T00:41:04.536Z,92.44
2022-12-01T00:46:09.421Z,92.36
2022-12-01T00:51:12.965Z,92.62
2022-12-01T00:56:16.735Z,92.76
2022-12-01T01:01:21.608Z,92.94
2022-12-01T01:06:25.333Z,93.32
2022-12-01T01:11:29.039Z,93.06
2022-12-01T01:16:34.345Z,92.92
2022-12-01T01:21:38.181Z,92.89
2022-12-01T01:26:41.847Z,92.75
2022-12-01T01:31:46.943Z,92.77
2022-12-01T01:36:50.509Z,92.40
2022-12-01T01:41:54.310Z,92.47
2022-12-01T01:46:59.983Z,92.71
2022-12-01T01:52:05.086Z,92.41
2022-12-01T01:57:10.986Z,92.32
2022-12-01T02:02:16.677Z,92.51
2022-12-01T02:07:21.037Z,92.28
2022-12-01T02:12:52.308Z,92.23
2022-12-01T02:18:29.156Z,92.39
2022-12-01T02:24:01.736Z,92.29
2022-12-01T02:29:39.367Z,92.71
2022-12-01T02:34:48.827Z,92.66
2022-12-01T02:39:59.251Z,92.61
2022-12-01T02:45:06.314Z,92.71
2022-12-01T02:50:13.947Z,92.73
2022-12-01T02:55:17.378Z,93.01
2022-12-01T03:00:20.998Z,93.10
2022-12-01T03:05:33.482Z,92.95
2022-12-01T03:10:46.978Z,93.03
2022-12-01T03:15:59.749Z,93.41
2022-12-01T03:21:11.042Z,93.44
2022-12-01T03:26:18.905Z,93.55
2022-12-01T03:31:28.573Z,93.69
2022-12-01T03:36:38.131Z,93.47
2022-12-01T03:41:47.843Z,93.25
2022-12-01T03:46:55.218Z,93.35
2022-12-01T03:52:10.779Z,93.59
2022-12-01T03:57:19.431Z,93.05
2022-12-01T04:02:27.770Z,93.27
2022-12-01T04:07:32.892Z,93.19
2022-12-01T04:12:36.686Z,92.74
2022-12-01T04:17:40.391Z,92.54
2022-12-01T04:22:45.514Z,92.53
2022-12-01T04:27:49.004Z,92.39
2022-12-01T04:32:52.440Z,92.66
2022-12-01T04:37:57.319Z,92.77
2022-12-01T04:43:00.692Z,92.93
2022-12-01T04:48:04.557Z,93.03
2022-12-01T04:53:09.360Z,93.03
2022-12-01T04:58:12.766Z,92.88
2022-12-01T05:03:16.258Z,93.04
2022-12-01T05:08:20.966Z,93.04
2022-12-01T05:13:24.674Z,93.28
2022-12-01T05:18:28.098Z,93.26
2022-12-01T05:23:35.030Z,93.10
2022-12-01T05:28:41.213Z,93.15
2022-12-01T05:33:44.602Z,93.21
2022-12-01T05:38:49.419Z,93.02
2022-12-01T05:43:52.969Z,93.00
2022-12-01T05:48:56.402Z,92.86
2022-12-01T05:54:02.319Z,93.24
2022-12-01T05:59:05.770Z,93.14
2022-12-01T06:04:09.484Z,93.59
2022-12-01T06:09:14.615Z,93.66
2022-12-01T06:14:18.217Z,93.64
2022-12-01T06:19:21.782Z,93.61
2022-12-01T06:24:26.948Z,93.71
2022-12-01T06:29:30.286Z,93.62
2022-12-01T06:34:33.674Z,93.64
2022-12-01T06:39:38.496Z,93.70
2022-12-01T06:44:41.878Z,93.61
2022-12-01T06:49:45.633Z,93.91
2022-12-01T06:54:50.413Z,93.41
2022-12-01T06:59:54.153Z,93.28
2022-12-01T07:04:57.849Z,93.32
2022-12-01T07:10:02.689Z,93.71
2022-12-01T07:15:09.536Z,93.34
2022-12-01T07:20:14.132Z,93.41
2022-12-01T07:25:18.953Z,93.66
2022-12-01T07:30:28.066Z,93.46
2022-12-01T07:35:31.873Z,93.54
2022-12-01T07:40:36.610Z,93.70
2022-12-01T07:45:40.019Z,93.62
2022-12-01T07:50:43.545Z,93.69
2022-12-01T07:55:51.523Z,93.71
2022-12-01T08:00:55.166Z,93.81
2022-12-01T08:05:58.826Z,93.87
2022-12-01T08:11:05.323Z,93.85
2022-12-01T08:16:10.639Z,93.55
2022-12-01T08:21:15.715Z,93.64
2022-12-01T08:26:21.454Z,94.01
2022-12-01T08:31:26.470Z,94.05
2022-12-01T08:36:29.910Z,94.01
2022-12-01T08:41:34.667Z,93.78
2022-12-01T08:46:38.932Z,93.71
2022-12-01T08:51:42.444Z,94.01
2022-12-01T08:56:47.250Z,94.13
2022-12-01T09:01:57.460Z,94.50
2022-12-01T09:07:01.089Z,94.32
2022-12-01T09:12:07.661Z,94.41
2022-12-01T09:17:11.265Z,94.25
2022-12-01T09:22:14.669Z,94.16
2022-12-01T09:27:19.484Z,94.08
2022-12-01T09:32:22.877Z,94.05
2022-12-01T09:37:26.330Z,94.04
2022-12-01T09:42:35.386Z,94.03
2022-12-01T09:47:40.177Z,94.04
2022-12-01T09:52:47.134Z,94.08
2022-12-01T09:57:53.888Z,93.64
2022-12-01T10:03:02.168Z,93.70
2022-12-01T10:08:09.263Z,93.73
2022-12-01T10:13:19.318Z,93.62
2022-12-01T10:18:36.663Z,93.59
2022-12-01T10:23:54.172Z,93.69
2022-12-01T10:29:13.140Z,93.79
2022-12-01T10:34:18.766Z,93.75
2022-12-01T10:39:27.942Z,93.74
2022-12-01T10:44:33.119Z,93.91
2022-12-01T10:49:38.981Z,94.26
2022-12-01T10:54:43.098Z,94.55
2022-12-01T10:59:52.701Z,94.53
2022-12-01T11:04:59.845Z,94.69
2022-12-01T11:10:16.866Z,94.70
2022-12-01T11:15:25.561Z,94.95
2022-12-01T11:20:33.530Z,95.12
2022-12-01T11:25:37.654Z,95.13
2022-12-01T11:30:42.478Z,95.46
2022-12-01T11:35:50.308Z,95.75
2022-12-01T11:40:56.090Z,96.33
2022-12-01T11:46:03.983Z,96.30
2022-12-01T11:51:12.152Z,96.35
2022-12-01T11:56:23.445Z,96.69
2022-12-01T12:01:40.379Z,96.61
2022-12-01T12:06:49.226Z,96.77
2022-12-01T12:12:01.868Z,96.91
2022-12-01T12:17:30.604Z,97.16
2022-12-01T12:22:46.904Z,96.99
2022-12-01T12:28:05.447Z,96.85
2022-12-01T12:33:41.199Z,96.73
2022-12-01T12:39:02.652Z,96.67
2022-12-01T12:44:20.855Z,96.56
2022-12-01T12:49:37.636Z,96.26
2022-12-01T12:54:49.522Z,96.28
2022-12-01T12:59:58.424Z,95.91
2022-12-01T13:05:09.163Z,95.69
2022-12-01T13:10:24.893Z,95.85
2022-12-01T13:15:30.291Z,95.76
2022-12-01T13:20:37.917Z,95.59
2022-12-01T13:25:44.516Z,95.68
2022-12-01T13:31:01.045Z,95.71
2022-12-01T13:41:38.990Z,95.75
2022-12-01T13:46:54.180Z,95.59
2022-12-01T13:52:28.499Z,95.63
2022-12-01T13:57:35.127Z,95.58
2022-12-01T14:02:38.652Z,95.48
2022-12-01T14:07:42.419Z,95.01
2022-12-01T14:12:48.059Z,95.28
2022-12-01T14:18:01.256Z,95.03
2022-12-01T14:23:14.770Z,95.04
2022-12-01T14:28:58.814Z,94.95
2022-12-01T14:34:05.278Z,94.38
2022-12-01T14:39:16.120Z,94.46
2022-12-01T14:44:26.850Z,94.60
2022-12-01T14:49:39.590Z,94.87
2022-12-01T14:54:47.119Z,94.81
2022-12-01T15:00:03.980Z,95.22
2022-12-01T15:05:12.850Z,95.01
2022-12-01T15:10:19.011Z,95.21
2022-12-01T15:15:25.477Z,95.49
2022-12-01T15:20:33.235Z,95.69
2022-12-01T15:25:37.244Z,95.65
2022-12-01T15:30:42.125Z,95.63
2022-12-01T15:35:49.838Z,95.88
2022-12-01T15:46:20.541Z,96.29
2022-12-01T15:51:28.764Z,96.47
2022-12-01T15:56:34.562Z,96.39
2022-12-01T16:01:38.732Z,96.59
2022-12-01T16:06:44.055Z,96.62
2022-12-01T16:12:05.987Z,96.67
2022-12-01T16:17:11.614Z,96.90
2022-12-01T16:22:22.479Z,96.96
2022-12-01T16:27:28.740Z,97.19
2022-12-01T16:32:38.125Z,97.16
2022-12-01T16:37:45.041Z,97.36
2022-12-01T16:42:49.928Z,97.07
2022-12-01T16:47:53.617Z,97.26
2022-12-01T16:52:58.633Z,97.32
2022-12-01T16:58:02.363Z,97.36
2022-12-01T17:03:07.041Z,97.68
2022-12-01T17:08:12.289Z,97.79
2022-12-01T17:13:15.735Z,98.07
2022-12-01T17:18:20.907Z,97.97
2022-12-01T17:23:25.763Z,97.92
2022-12-01T17:28:29.321Z,98.01
2022-12-01T17:33:33.314Z,97.82
2022-12-01T17:38:39.469Z,97.63
2022-12-01T17:43:43.517Z,97.55
2022-12-01T17:48:48.063Z,97.73
2022-12-01T17:53:54.369Z,97.99
2022-12-01T17:58:57.833Z,98.02
2022-12-01T18:04:01.365Z,98.32
2022-12-01T18:09:06.287Z,98.40
2022-12-01T18:14:09.679Z,98.48
2022-12-01T18:19:13.537Z,98.60
2022-12-01T18:24:18.420Z,98.80
2022-12-01T18:29:26.248Z,98.94
2022-12-01T18:34:30.581Z,98.77
2022-12-01T18:39:35.650Z,98.89
2022-12-01T18:44:39.332Z,98.82
2022-12-01T18:49:42.765Z,99.04
2022-12-01T18:54:47.880Z,99.01
2022-12-01T18:59:51.995Z,99.09
2022-12-01T19:04:55.751Z,99.28
2022-12-01T19:10:00.898Z,99.48
2022-12-01T19:15:05.739Z,99.68
2022-12-01T19:20:10.630Z,99.51
2022-12-01T19:25:15.886Z,99.63
2022-12-01T19:30:19.902Z,99.61
2022-12-01T19:35:23.776Z,99.62
2022-12-01T19:40:29.083Z,99.69
2022-12-01T19:45:33.874Z,99.70
2022-12-01T19:50:38.100Z,99.99
2022-12-01T19:55:43.035Z,100.00
2022-12-01T20:00:46.965Z,100.00
2022-12-01T20:05:50.475Z,100.00
2022-12-01T20:10:55.614Z,100.00
2022-12-01T20:16:03.348Z,100.00
2022-12-01T20:21:09.171Z,100.00
2022-12-01T20:26:15.691Z,100.00
2022-12-01T20:31:22.385Z,100.00
2022-12-01T20:36:26.400Z,100.00
2022-12-01T20:41:33.318Z,100.00
2022-12-01T20:46:41.047Z,100.00
2022-12-01T20:51:45.302Z,100.00
2022-12-01T20:56:50.551Z,100.00
2022-12-01T21:01:54.094Z,100.00
2022-12-01T21:06:58.170Z,100.00
2022-12-01T21:12:21.742Z,100.00
2022-12-01T21:17:34.319Z,100.00
2022-12-01T21:22:37.914Z,100.00
2022-12-01T21:27:42.876Z,100.00
2022-12-01T21:32:47.534Z,100.00
2022-12-01T21:37:52.745Z,100.00
2022-12-01T21:43:01.408Z,100.00
2022-12-01T21:48:15.384Z,100.00
2022-12-01T21:53:21.162Z,100.00
2022-12-01T21:58:29.170Z,100.00
2022-12-01T22:03:34.732Z,100.00
2022-12-01T22:08:41.354Z,100.00
2022-12-01T22:13:48.354Z,100.00
2022-12-01T22:18:53.596Z,100.00
2022-12-01T22:24:03.997Z,100.00
2022-12-01T22:29:26.504Z,100.00
2022-12-01T22:34:29.907Z,100.00
2022-12-01T22:39:34.558Z,100.00
2022-12-01T22:44:39.278Z,100.00
2022-12-01T22:49:43.952Z,100.00
2022-12-01T22:54:50.343Z,100.00
2022-12-01T22:59:56.310Z,100.00
2022-12-01T23:05:01.334Z,100.00
2022-12-01T23:10:13.254Z,100.00
2022-12-01T23:15:24.778Z,100.00
2022-12-01T23:20:34.542Z,100.00
2022-12-01T23:25:37.956Z,100.00
2022-12-01T23:30:44.192Z,100.00
2022-12-01T23:35:52.176Z,100.00
2022-12-01T23:41:00.233Z,100.00
2022-12-01T23:46:09.888Z,100.00
2022-12-01T23:51:19.662Z,100.00
2022-12-01T23:56:25.846Z,100.00
